Time;durP1;ratioP1;P1;durP2;ratioP2;P2;SDS_P1;SDS_P2;PMS_P1;PMS_P2;Temp;Humidity;BMP_temperature;BMP_pressure;BME280_temperature;BME280_humidity;BME280_pressure;Samples;Min_cycle;Max_cycle;Signal;HPM_P1;HPM_P2
2023/12/03 00:00:21;;;;;;;5.97;4.13;;;;;;;;;;4977894;28;20484;-60
2023/12/03 00:02:49;;;;;;;8.17;4.97;;;;;;;;;;4975289;28;20465;-60
2023/12/03 00:05:17;;;;;;;7.10;4.63;;;;;;;;;;4971538;28;20830;-60
2023/12/03 00:07:46;;;;;;;8.73;4.97;;;;;;;;;;4977519;28;20951;-60
2023/12/03 00:10:21;;;;;;;9.17;4.87;;;;;;;;;;4978462;28;20445;-61
2023/12/03 00:12:49;;;;;;;7.10;4.67;;;;;;;;;;4978252;28;20440;-61
2023/12/03 00:15:17;;;;;;;6.50;4.67;;;;;;;;;;4977412;28;20481;-61
2023/12/03 00:17:45;;;;;;;5.87;4.27;;;;;;;;;;4978830;28;20449;-61
2023/12/03 00:20:13;;;;;;;7.17;4.50;;;;;;;;;;4978465;28;20449;-61
2023/12/03 00:22:41;;;;;;;6.37;4.83;;;;;;;;;;4978480;28;20531;-60
2023/12/03 00:25:10;;;;;;;7.40;4.73;;;;;;;;;;4978221;28;20479;-60
2023/12/03 00:27:38;;;;;;;8.27;4.93;;;;;;;;;;4973484;28;20484;-61
2023/12/03 00:30:07;;;;;;;5.20;4.50;;;;;;;;;;4978176;28;20540;-60
2023/12/03 00:32:35;;;;;;;7.43;4.93;;;;;;;;;;4978294;28;20516;-61
2023/12/03 00:35:03;;;;;;;6.13;4.97;;;;;;;;;;4978028;28;20445;-61
2023/12/03 00:37:31;;;;;;;6.93;5.17;;;;;;;;;;4978303;28;20504;-60
2023/12/03 00:39:59;;;;;;;5.87;4.80;;;;;;;;;;4977900;28;20454;-60
2023/12/03 00:42:29;;;;;;;6.50;4.80;;;;;;;;;;4977482;28;20480;-61
2023/12/03 00:45:28;;;;;;;5.83;4.40;;;;;;;;;;4977739;28;20476;-61
2023/12/03 00:47:56;;;;;;;5.53;4.37;;;;;;;;;;4977408;28;20444;-61
2023/12/03 00:50:24;;;;;;;5.77;4.37;;;;;;;;;;4981223;28;20461;-61
2023/12/03 00:52:52;;;;;;;6.10;4.10;;;;;;;;;;4981699;28;20854;-60
2023/12/03 00:55:20;;;;;;;6.70;4.20;;;;;;;;;;4981350;28;20495;-60
2023/12/03 00:57:50;;;;;;;6.70;5.63;;;;;;;;;;4985117;28;20464;-60
2023/12/03 01:00:18;;;;;;;7.53;4.63;;;;;;;;;;4982181;28;20448;-61
2023/12/03 01:02:46;;;;;;;5.20;4.23;;;;;;;;;;4982162;28;20484;-61
2023/12/03 01:05:14;;;;;;;6.37;4.23;;;;;;;;;;4978789;28;20932;-60
2023/12/03 01:07:42;;;;;;;7.27;5.40;;;;;;;;;;4981913;28;20452;-60
2023/12/03 01:10:10;;;;;;;7.00;4.87;;;;;;;;;;4981564;28;20998;-61
2023/12/03 01:12:38;;;;;;;6.90;4.60;;;;;;;;;;4980099;28;20496;-61
2023/12/03 01:15:08;;;;;;;6.53;4.50;;;;;;;;;;4967781;28;20519;-61
2023/12/03 01:17:36;;;;;;;6.73;5.00;;;;;;;;;;4981533;28;20433;-60
2023/12/03 01:20:06;;;;;;;6.70;4.43;;;;;;;;;;4981712;28;20445;-60
2023/12/03 01:22:35;;;;;;;6.43;4.63;;;;;;;;;;4979722;28;20516;-60
2023/12/03 01:25:03;;;;;;;4.90;4.33;;;;;;;;;;4981268;28;20900;-61
2023/12/03 01:27:31;;;;;;;6.37;4.70;;;;;;;;;;4981485;28;21004;-61
2023/12/03 01:29:59;;;;;;;5.53;4.80;;;;;;;;;;4981459;28;20779;-60
2023/12/03 01:32:28;;;;;;;5.20;4.40;;;;;;;;;;4981719;28;20465;-61
2023/12/03 01:34:56;;;;;;;9.07;5.40;;;;;;;;;;4981322;28;20441;-60
2023/12/03 01:37:24;;;;;;;5.87;4.33;;;;;;;;;;4981036;28;20486;-60
2023/12/03 01:39:52;;;;;;;5.10;4.50;;;;;;;;;;4985722;28;20445;-60
2023/12/03 01:42:21;;;;;;;7.10;4.70;;;;;;;;;;4980925;28;20583;-61
2023/12/03 01:44:49;;;;;;;6.97;5.60;;;;;;;;;;4980987;28;20441;-61
2023/12/03 01:47:17;;;;;;;6.57;4.40;;;;;;;;;;4974992;28;20548;-60
2023/12/03 01:49:49;;;;;;;5.90;3.93;;;;;;;;;;4974239;28;20445;-60
2023/12/03 01:52:17;;;;;;;6.63;4.63;;;;;;;;;;4981400;28;20497;-60
2023/12/03 01:54:45;;;;;;;6.33;4.83;;;;;;;;;;4980974;28;20491;-61
2023/12/03 01:57:14;;;;;;;8.27;5.27;;;;;;;;;;4981982;28;20504;-60
2023/12/03 01:59:43;;;;;;;6.67;4.13;;;;;;;;;;4980655;28;20459;-61
2023/12/03 02:02:11;;;;;;;6.17;4.13;;;;;;;;;;4980705;28;20922;-61
2023/12/03 02:04:39;;;;;;;6.10;4.67;;;;;;;;;;4981045;28;20936;-61
2023/12/03 02:07:08;;;;;;;7.60;5.07;;;;;;;;;;4980877;28;20532;-61
2023/12/03 02:09:36;;;;;;;5.70;4.40;;;;;;;;;;4980907;28;20480;-61
2023/12/03 02:12:05;;;;;;;6.97;4.93;;;;;;;;;;4980268;28;20840;-60
2023/12/03 02:14:33;;;;;;;7.27;5.20;;;;;;;;;;4972998;28;20449;-60
2023/12/03 02:17:02;;;;;;;8.73;5.03;;;;;;;;;;4980970;28;20433;-61
2023/12/03 02:19:30;;;;;;;7.83;3.93;;;;;;;;;;4980778;28;20445;-60
2023/12/03 02:21:58;;;;;;;7.27;4.63;;;;;;;;;;4980215;28;20502;-61
2023/12/03 02:24:27;;;;;;;6.93;4.90;;;;;;;;;;4980185;28;20440;-60
2023/12/03 02:26:56;;;;;;;7.77;4.57;;;;;;;;;;4980211;28;20528;-61
2023/12/03 02:29:23;;;;;;;7.13;4.93;;;;;;;;;;4980261;28;20503;-61
2023/12/03 02:31:51;;;;;;;7.90;5.33;;;;;;;;;;4980350;28;20872;-60
2023/12/03 02:34:19;;;;;;;7.50;5.07;;;;;;;;;;4980405;28;20468;-60
2023/12/03 02:36:47;;;;;;;9.53;5.07;;;;;;;;;;4980049;28;20835;-60
2023/12/03 02:39:16;;;;;;;6.20;5.37;;;;;;;;;;4980322;28;20479;-60
2023/12/03 02:41:45;;;;;;;7.13;4.63;;;;;;;;;;4987517;28;21043;-61
2023/12/03 02:44:13;;;;;;;6.60;5.23;;;;;;;;;;4979882;28;20809;-61
2023/12/03 02:46:41;;;;;;;6.57;4.80;;;;;;;;;;4980327;28;20445;-61
2023/12/03 02:49:09;;;;;;;4.93;4.03;;;;;;;;;;4979947;28;20480;-60
2023/12/03 02:51:37;;;;;;;10.10;5.63;;;;;;;;;;4979878;28;21014;-60
2023/12/03 02:54:05;;;;;;;6.93;5.27;;;;;;;;;;4980263;28;20530;-61
2023/12/03 02:56:33;;;;;;;7.37;4.87;;;;;;;;;;4979760;28;20469;-60
2023/12/03 02:59:04;;;;;;;10.77;5.60;;;;;;;;;;4981226;28;20508;-61
2023/12/03 03:01:32;;;;;;;7.63;4.93;;;;;;;;;;4979514;28;20999;-61
2023/12/03 03:04:00;;;;;;;9.33;5.87;;;;;;;;;;4979599;28;20521;-60
2023/12/03 03:06:28;;;;;;;8.63;5.30;;;;;;;;;;4979763;28;20441;-61
2023/12/03 03:08:56;;;;;;;9.20;5.57;;;;;;;;;;4976309;28;20468;-61
2023/12/03 03:11:24;;;;;;;7.33;4.77;;;;;;;;;;4977658;28;20465;-61
2023/12/03 03:13:52;;;;;;;7.67;5.60;;;;;;;;;;4979750;28;20450;-60
2023/12/03 03:16:24;;;;;;;9.23;5.10;;;;;;;;;;4979105;28;20472;-60
2023/12/03 03:18:52;;;;;;;9.00;4.80;;;;;;;;;;4978481;28;20504;-61
2023/12/03 03:21:20;;;;;;;7.43;5.13;;;;;;;;;;4979453;28;20877;-61
2023/12/03 03:23:48;;;;;;;8.07;5.73;;;;;;;;;;4979297;28;20492;-61
2023/12/03 03:26:16;;;;;;;9.23;5.20;;;;;;;;;;4979360;28;20475;-61
2023/12/03 03:28:44;;;;;;;8.50;5.37;;;;;;;;;;4979139;28;20441;-60
2023/12/03 03:31:12;;;;;;;11.40;5.93;;;;;;;;;;4979438;28;20473;-60
2023/12/03 03:33:41;;;;;;;7.17;5.73;;;;;;;;;;4978701;28;20503;-61
2023/12/03 03:36:10;;;;;;;7.37;5.17;;;;;;;;;;4978773;28;20485;-61
2023/12/03 03:38:38;;;;;;;7.97;5.27;;;;;;;;;;4979322;28;20452;-60
2023/12/03 03:41:06;;;;;;;7.77;5.97;;;;;;;;;;4989153;28;20470;-60
2023/12/03 03:43:34;;;;;;;6.23;5.50;;;;;;;;;;4978373;28;20480;-61
2023/12/03 03:46:02;;;;;;;8.63;5.60;;;;;;;;;;4978380;28;20491;-61
2023/12/03 03:48:30;;;;;;;9.07;5.80;;;;;;;;;;4978862;28;20450;-61
2023/12/03 03:51:00;;;;;;;9.73;5.17;;;;;;;;;;4979065;28;20464;-61
2023/12/03 03:53:28;;;;;;;8.97;5.97;;;;;;;;;;4978898;28;20445;-60
2023/12/03 03:55:56;;;;;;;6.93;5.00;;;;;;;;;;4974193;28;20477;-61
2023/12/03 03:58:24;;;;;;;8.97;5.30;;;;;;;;;;4981451;28;20449;-61
2023/12/03 04:00:52;;;;;;;8.97;5.20;;;;;;;;;;4979074;28;20879;-61
2023/12/03 04:03:20;;;;;;;8.43;5.30;;;;;;;;;;4978873;28;20508;-61
2023/12/03 04:05:48;;;;;;;7.50;4.47;;;;;;;;;;4979169;28;20447;-61
2023/12/03 04:08:19;;;;;;;8.13;5.60;;;;;;;;;;4978435;28;20987;-61
2023/12/03 04:10:47;;;;;;;6.13;4.53;;;;;;;;;;4978351;28;20488;-60
2023/12/03 04:13:15;;;;;;;7.67;5.13;;;;;;;;;;4978595;28;20495;-60
2023/12/03 04:15:43;;;;;;;6.40;5.33;;;;;;;;;;4979503;28;21003;-60
2023/12/03 04:18:11;;;;;;;8.40;5.47;;;;;;;;;;4978807;28;20473;-60
2023/12/03 04:20:39;;;;;;;7.47;5.33;;;;;;;;;;4978756;28;20467;-61
2023/12/03 04:23:07;;;;;;;8.37;5.00;;;;;;;;;;4978205;28;21049;-60
2023/12/03 04:25:37;;;;;;;6.17;4.47;;;;;;;;;;4978248;28;20477;-60
2023/12/03 04:28:05;;;;;;;7.27;5.13;;;;;;;;;;4976134;28;20488;-61
2023/12/03 04:30:33;;;;;;;12.10;5.77;;;;;;;;;;4977203;28;20495;-60
2023/12/03 04:33:01;;;;;;;8.50;5.87;;;;;;;;;;4978027;28;20433;-61
2023/12/03 04:35:30;;;;;;;8.83;5.27;;;;;;;;;;4972119;28;20539;-62
2023/12/03 04:37:59;;;;;;;9.20;5.40;;;;;;;;;;4977684;28;20445;-61
2023/12/03 04:40:28;;;;;;;11.40;6.17;;;;;;;;;;4982477;28;20468;-61
2023/12/03 04:42:59;;;;;;;7.70;5.27;;;;;;;;;;4978429;28;20484;-60
2023/12/03 04:45:27;;;;;;;8.50;5.60;;;;;;;;;;4977816;28;20999;-61
2023/12/03 04:47:55;;;;;;;8.23;5.53;;;;;;;;;;4978287;28;20453;-61
2023/12/03 04:50:24;;;;;;;7.47;4.87;;;;;;;;;;4978119;28;20501;-61
2023/12/03 04:52:52;;;;;;;9.20;5.57;;;;;;;;;;4978427;28;20536;-61
2023/12/03 04:55:20;;;;;;;10.23;6.03;;;;;;;;;;4977881;28;20445;-61
2023/12/03 04:57:48;;;;;;;8.93;5.97;;;;;;;;;;4980851;28;20482;-61
2023/12/03 05:00:18;;;;;;;8.13;5.23;;;;;;;;;;4978282;28;20437;-61
2023/12/03 05:02:46;;;;;;;9.13;5.20;;;;;;;;;;4977946;28;20527;-60
2023/12/03 05:05:14;;;;;;;7.87;5.10;;;;;;;;;;4978198;28;20449;-61
2023/12/03 05:07:42;;;;;;;10.23;5.53;;;;;;;;;;4978036;28;20453;-61
2023/12/03 05:10:10;;;;;;;9.00;6.03;;;;;;;;;;4978039;28;20441;-61
2023/12/03 05:12:39;;;;;;;6.83;4.83;;;;;;;;;;4978231;28;20445;-60
2023/12/03 05:15:07;;;;;;;8.50;5.30;;;;;;;;;;4975472;28;20481;-61
2023/12/03 05:17:36;;;;;;;7.33;5.60;;;;;;;;;;4976997;28;20488;-59
2023/12/03 05:20:08;;;;;;;12.07;5.97;;;;;;;;;;4978059;28;20449;-61
2023/12/03 05:22:36;;;;;;;10.50;5.90;;;;;;;;;;4977464;28;20937;-59
2023/12/03 05:25:04;;;;;;;8.07;5.20;;;;;;;;;;4976411;28;20848;-59
2023/12/03 05:27:32;;;;;;;7.37;4.73;;;;;;;;;;4977903;28;20441;-59
2023/12/03 05:30:01;;;;;;;12.07;5.60;;;;;;;;;;4978123;28;20444;-59
2023/12/03 05:32:29;;;;;;;8.17;5.60;;;;;;;;;;4978348;28;20453;-59
2023/12/03 05:35:01;;;;;;;9.23;5.87;;;;;;;;;;4979500;28;20504;-60
2023/12/03 05:37:31;;;;;;;8.93;5.50;;;;;;;;;;4978171;28;20472;-58
2023/12/03 05:39:59;;;;;;;10.90;5.70;;;;;;;;;;4981077;28;20824;-60
2023/12/03 05:42:28;;;;;;;9.33;6.13;;;;;;;;;;4981594;28;20505;-60
2023/12/03 05:44:56;;;;;;;8.13;5.73;;;;;;;;;;4975368;28;20516;-61
2023/12/03 05:47:24;;;;;;;9.40;6.20;;;;;;;;;;4981506;28;20503;-60
2023/12/03 05:49:53;;;;;;;8.53;5.40;;;;;;;;;;4981852;28;20488;-59
2023/12/03 05:52:23;;;;;;;9.83;6.30;;;;;;;;;;4986800;28;20476;-60
2023/12/03 05:54:55;;;;;;;9.53;6.53;;;;;;;;;;4984469;28;20437;-60
2023/12/03 05:57:23;;;;;;;9.30;5.07;;;;;;;;;;4985118;28;20931;-59
2023/12/03 05:59:53;;;;;;;14.50;7.00;;;;;;;;;;4982739;28;20441;-61
2023/12/03 06:02:22;;;;;;;7.70;5.90;;;;;;;;;;4991469;28;20507;-59
2023/12/03 06:04:50;;;;;;;9.60;5.43;;;;;;;;;;4970224;28;20520;-59
2023/12/03 06:07:19;;;;;;;9.37;5.70;;;;;;;;;;4981730;28;20528;-59
2023/12/03 06:09:48;;;;;;;8.33;5.70;;;;;;;;;;4979078;28;20511;-60
2023/12/03 06:12:17;;;;;;;10.87;5.47;;;;;;;;;;4988336;28;20468;-59
2023/12/03 06:14:45;;;;;;;8.57;5.37;;;;;;;;;;4970347;28;20441;-59
2023/12/03 06:17:13;;;;;;;8.43;5.70;;;;;;;;;;4980318;28;20851;-59
2023/12/03 06:19:41;;;;;;;8.90;5.53;;;;;;;;;;4980069;28;20903;-61
2023/12/03 06:22:09;;;;;;;12.33;6.20;;;;;;;;;;4979774;28;20461;-60
2023/12/03 06:24:37;;;;;;;8.07;5.07;;;;;;;;;;4980669;28;20516;-59
2023/12/03 06:27:06;;;;;;;13.43;6.60;;;;;;;;;;4980316;28;20445;-59
2023/12/03 06:29:35;;;;;;;11.93;6.07;;;;;;;;;;4980552;28;20456;-60
2023/12/03 06:32:03;;;;;;;8.67;5.60;;;;;;;;;;4980346;28;20460;-60
2023/12/03 06:34:31;;;;;;;10.50;5.53;;;;;;;;;;4972924;28;20437;-59
2023/12/03 06:36:59;;;;;;;8.50;5.13;;;;;;;;;;4980192;28;20560;-59
2023/12/03 06:39:28;;;;;;;8.37;5.63;;;;;;;;;;4980378;28;20441;-61
2023/12/03 06:41:56;;;;;;;10.50;6.10;;;;;;;;;;4982121;28;20465;-59
2023/12/03 06:44:25;;;;;;;9.83;5.87;;;;;;;;;;4980537;28;20481;-59
2023/12/03 06:47:11;;;;;;;12.37;5.83;;;;;;;;;;4977771;28;20480;-60
2023/12/03 06:49:42;;;;;;;10.03;5.97;;;;;;;;;;4978231;28;20477;-60
2023/12/03 06:52:10;;;;;;;12.37;6.43;;;;;;;;;;4978890;28;20473;-61
2023/12/03 06:54:38;;;;;;;11.50;5.63;;;;;;;;;;4979165;28;20503;-59
2023/12/03 06:57:07;;;;;;;8.97;5.50;;;;;;;;;;4980002;28;20445;-59
2023/12/03 06:59:37;;;;;;;11.93;6.07;;;;;;;;;;4980385;28;20850;-61
2023/12/03 07:02:07;;;;;;;10.43;6.00;;;;;;;;;;4980425;28;20469;-60
2023/12/03 07:04:36;;;;;;;10.90;5.73;;;;;;;;;;4980040;28;20484;-60
2023/12/03 07:07:05;;;;;;;9.23;5.77;;;;;;;;;;4978222;28;20449;-61
2023/12/03 07:09:33;;;;;;;11.50;6.93;;;;;;;;;;4978791;28;20460;-59
2023/12/03 07:12:07;;;;;;;10.03;5.67;;;;;;;;;;4970417;28;20571;-59
2023/12/03 07:14:36;;;;;;;9.87;6.47;;;;;;;;;;4974900;28;20444;-59
2023/12/03 07:17:06;;;;;;;9.00;6.10;;;;;;;;;;4976972;28;20948;-60
2023/12/03 07:19:34;;;;;;;8.73;6.07;;;;;;;;;;4978182;28;20452;-60
2023/12/03 07:22:02;;;;;;;9.93;6.27;;;;;;;;;;4978312;28;20470;-62
2023/12/03 07:24:30;;;;;;;8.93;6.40;;;;;;;;;;4979251;28;20480;-61
2023/12/03 07:26:58;;;;;;;10.33;5.87;;;;;;;;;;4983727;28;20952;-61
2023/12/03 07:29:26;;;;;;;9.53;4.83;;;;;;;;;;4979470;28;20468;-61
2023/12/03 07:31:56;;;;;;;10.23;6.37;;;;;;;;;;4978856;28;20992;-60
2023/12/03 07:34:26;;;;;;;14.63;6.73;;;;;;;;;;4979790;28;20434;-59
2023/12/03 07:36:55;;;;;;;9.97;6.07;;;;;;;;;;4979331;28;20472;-61
2023/12/03 07:39:23;;;;;;;9.63;5.80;;;;;;;;;;4979498;28;20836;-60
2023/12/03 07:41:52;;;;;;;11.70;6.40;;;;;;;;;;4978247;28;20476;-60
2023/12/03 07:47:51;;;;;;;9.47;5.97;;;;;;;;;;4976653;28;20435;-59
2023/12/03 07:50:19;;;;;;;11.47;6.20;;;;;;;;;;4979001;28;20528;-59
2023/12/03 07:52:47;;;;;;;13.67;6.93;;;;;;;;;;4979122;28;20449;-59
2023/12/03 07:55:16;;;;;;;9.13;6.00;;;;;;;;;;4978802;28;20467;-61
2023/12/03 07:57:44;;;;;;;8.90;5.50;;;;;;;;;;4978881;28;20441;-61
2023/12/03 08:00:12;;;;;;;11.60;6.63;;;;;;;;;;4978737;28;20452;-61
2023/12/03 08:02:51;;;;;;;13.53;6.90;;;;;;;;;;4976146;28;20452;-61
2023/12/03 08:05:19;;;;;;;12.27;6.17;;;;;;;;;;4978186;28;20889;-61
2023/12/03 08:07:47;;;;;;;12.27;6.73;;;;;;;;;;4978860;28;20445;-61
2023/12/03 08:10:15;;;;;;;10.73;7.07;;;;;;;;;;4978241;28;20449;-58
2023/12/03 08:12:43;;;;;;;11.80;5.97;;;;;;;;;;4976283;28;20551;-59
2023/12/03 08:15:11;;;;;;;12.80;6.93;;;;;;;;;;4977198;28;20461;-58
2023/12/03 08:17:39;;;;;;;10.07;5.90;;;;;;;;;;4964694;28;20845;-59
2023/12/03 08:20:10;;;;;;;11.40;6.57;;;;;;;;;;4976729;28;20940;-61
2023/12/03 08:22:38;;;;;;;11.00;7.17;;;;;;;;;;4977535;28;20500;-61
2023/12/03 08:25:07;;;;;;;11.10;7.07;;;;;;;;;;4978037;28;21031;-61
2023/12/03 08:27:39;;;;;;;9.33;6.53;;;;;;;;;;4978283;28;20449;-61
2023/12/03 08:30:07;;;;;;;9.47;6.40;;;;;;;;;;4978743;28;20476;-61
2023/12/03 08:32:35;;;;;;;7.47;5.83;;;;;;;;;;4978202;28;20846;-61
2023/12/03 08:35:03;;;;;;;11.23;6.20;;;;;;;;;;4978178;28;20944;-61
2023/12/03 08:37:33;;;;;;;11.97;7.00;;;;;;;;;;4978070;28;20504;-61
2023/12/03 08:40:01;;;;;;;9.17;6.13;;;;;;;;;;4981678;28;21031;-62
2023/12/03 08:45:59;;;;;;;12.40;7.40;;;;;;;;;;4973496;28;20527;-59
2023/12/03 08:48:27;;;;;;;9.53;6.27;;;;;;;;;;4976698;28;20445;-61
2023/12/03 08:50:56;;;;;;;9.33;6.33;;;;;;;;;;4982861;28;20469;-61
2023/12/03 08:53:26;;;;;;;16.60;7.63;;;;;;;;;;4984082;28;20527;-61
2023/12/03 08:55:59;;;;;;;8.97;5.73;;;;;;;;;;4981477;28;20524;-61
2023/12/03 08:58:27;;;;;;;10.70;6.07;;;;;;;;;;4981222;28;20445;-60
2023/12/03 09:00:57;;;;;;;12.33;6.73;;;;;;;;;;4984626;28;20469;-60
2023/12/03 09:03:25;;;;;;;10.97;7.00;;;;;;;;;;4978093;28;20445;-61
2023/12/03 09:05:55;;;;;;;11.70;6.80;;;;;;;;;;4977405;28;20476;-60
2023/12/03 09:08:28;;;;;;;11.77;7.23;;;;;;;;;;4977767;28;20468;-61
2023/12/03 09:10:57;;;;;;;11.53;6.93;;;;;;;;;;4978548;28;20472;-59
2023/12/03 09:13:25;;;;;;;11.57;7.47;;;;;;;;;;4979252;28;20497;-59
2023/12/03 09:15:56;;;;;;;13.97;7.50;;;;;;;;;;4979897;28;20448;-59
2023/12/03 09:18:24;;;;;;;14.37;7.37;;;;;;;;;;4981165;28;20441;-58
2023/12/03 09:20:53;;;;;;;15.00;8.17;;;;;;;;;;4981587;28;20464;-58
2023/12/03 09:23:34;;;;;;;15.53;7.03;;;;;;;;;;4980465;28;20523;-58
2023/12/03 09:26:05;;;;;;;9.77;6.77;;;;;;;;;;4981143;28;20487;-60
2023/12/03 09:28:34;;;;;;;11.50;7.70;;;;;;;;;;4981046;28;20444;-59
2023/12/03 09:31:02;;;;;;;11.70;6.73;;;;;;;;;;4981611;28;21060;-59
2023/12/03 09:33:30;;;;;;;8.73;7.17;;;;;;;;;;4981393;28;20453;-60
2023/12/03 09:36:06;;;;;;;9.23;6.30;;;;;;;;;;4980377;28;20465;-59
2023/12/03 09:38:35;;;;;;;9.50;6.23;;;;;;;;;;4979950;28;20451;-60
2023/12/03 09:41:20;;;;;;;9.33;6.13;;;;;;;;;;4981899;28;20461;-60
2023/12/03 09:43:52;;;;;;;12.60;6.67;;;;;;;;;;4970715;28;20455;-58
2023/12/03 09:46:34;;;;;;;;;;;;;;;;;;;;;
2023/12/03 09:49:10;;;;;;;9.87;6.00;;;;;;;;;;4980657;28;20441;-61
2023/12/03 09:51:39;;;;;;;12.53;7.13;;;;;;;;;;4980701;28;20493;-60
2023/12/03 09:54:10;;;;;;;12.37;6.83;;;;;;;;;;4980827;28;20449;-60
2023/12/03 09:56:39;;;;;;;21.80;11.57;;;;;;;;;;4980174;28;20500;-60
2023/12/03 09:59:08;;;;;;;10.77;6.27;;;;;;;;;;4981878;28;20555;-61
2023/12/03 10:01:39;;;;;;;14.10;6.77;;;;;;;;;;4971858;28;20465;-59
2023/12/03 10:04:07;;;;;;;11.77;6.90;;;;;;;;;;4981435;28;20465;-61
2023/12/03 10:06:41;;;;;;;10.80;6.27;;;;;;;;;;4977707;28;20488;-60
2023/12/03 10:09:15;;;;;;;9.37;5.77;;;;;;;;;;4978715;28;20548;-60
2023/12/03 10:11:49;;;;;;;9.47;5.97;;;;;;;;;;4975439;28;20487;-61
2023/12/03 10:14:21;;;;;;;11.10;6.53;;;;;;;;;;4973519;28;20549;-60
2023/12/03 10:16:52;;;;;;;14.47;6.50;;;;;;;;;;4975445;28;20434;-60
2023/12/03 10:19:23;;;;;;;11.30;6.60;;;;;;;;;;4980290;28;21020;-60
2023/12/03 10:21:52;;;;;;;12.00;6.47;;;;;;;;;;4982765;28;20502;-59
2023/12/03 10:24:22;;;;;;;11.87;6.77;;;;;;;;;;4979905;28;20449;-59
2023/12/03 10:26:51;;;;;;;12.10;5.93;;;;;;;;;;4979460;28;20919;-59
2023/12/03 10:29:20;;;;;;;13.37;6.97;;;;;;;;;;4980436;28;20528;-60
2023/12/03 10:31:49;;;;;;;8.63;6.80;;;;;;;;;;4972943;28;20536;-60
2023/12/03 10:34:19;;;;;;;11.97;7.17;;;;;;;;;;4980351;28;20445;-61
2023/12/03 10:36:47;;;;;;;13.47;7.10;;;;;;;;;;4980191;28;20533;-61
2023/12/03 10:39:18;;;;;;;11.13;6.90;;;;;;;;;;4980218;28;20473;-60
2023/12/03 10:41:49;;;;;;;12.10;6.70;;;;;;;;;;4984268;28;20464;-60
2023/12/03 10:44:17;;;;;;;10.80;7.03;;;;;;;;;;4980261;28;20449;-60
2023/12/03 10:46:47;;;;;;;11.73;6.40;;;;;;;;;;4979835;28;20572;-59
2023/12/03 10:49:39;;;;;;;12.30;6.87;;;;;;;;;;4979571;28;20441;-58
2023/12/03 10:52:37;;;;;;;9.90;5.97;;;;;;;;;;4980059;28;20555;-59
2023/12/03 10:58:52;;;;;;;14.13;6.23;;;;;;;;;;4970359;28;20445;-59
2023/12/03 11:01:28;;;;;;;11.93;7.37;;;;;;;;;;4979306;28;20480;-59
2023/12/03 11:04:03;;;;;;;12.07;7.57;;;;;;;;;;4979729;28;20437;-59
2023/12/03 11:06:33;;;;;;;14.67;7.30;;;;;;;;;;4979583;28;20512;-59
2023/12/03 11:09:18;;;;;;;12.27;6.97;;;;;;;;;;4979207;28;20455;-59
2023/12/03 11:12:01;;;;;;;12.40;7.33;;;;;;;;;;4968341;28;20537;-60
2023/12/03 11:14:33;;;;;;;11.33;7.20;;;;;;;;;;4980418;28;20505;-60
2023/12/03 11:17:33;;;;;;;13.50;7.90;;;;;;;;;;4976329;28;20541;-60
2023/12/03 11:20:24;;;;;;;14.30;8.50;;;;;;;;;;4901368;29;20519;-60
2023/12/03 11:23:08;;;;;;;16.77;8.10;;;;;;;;;;4938839;29;20447;-60
2023/12/03 11:25:42;;;;;;;14.73;8.63;;;;;;;;;;4938092;29;20486;-60
2023/12/03 11:28:10;;;;;;;13.53;7.03;;;;;;;;;;4938650;29;20957;-61
2023/12/03 11:30:40;;;;;;;10.87;7.30;;;;;;;;;;4938471;29;20455;-60
2023/12/03 11:33:11;;;;;;;15.33;7.17;;;;;;;;;;4938165;29;20545;-60
2023/12/03 11:35:40;;;;;;;15.67;8.13;;;;;;;;;;4938118;29;20865;-60
2023/12/03 11:38:09;;;;;;;12.63;7.47;;;;;;;;;;4938519;29;20590;-59
2023/12/03 11:40:44;;;;;;;12.63;7.07;;;;;;;;;;4939720;29;20546;-58
2023/12/03 11:43:30;;;;;;;15.63;8.73;;;;;;;;;;4936503;29;20450;-59
2023/12/03 11:46:22;;;;;;;49.40;27.07;;;;;;;;;;4933682;29;20954;-60
2023/12/03 11:48:51;;;;;;;16.07;9.57;;;;;;;;;;4934791;29;20494;-61
2023/12/03 11:51:20;;;;;;;12.27;7.43;;;;;;;;;;4937417;29;20506;-60
2023/12/03 11:53:53;;;;;;;13.57;8.57;;;;;;;;;;4938240;29;20861;-60
2023/12/03 11:56:22;;;;;;;11.70;6.60;;;;;;;;;;4938874;28;20453;-60
2023/12/03 11:58:54;;;;;;;15.27;7.67;;;;;;;;;;4978235;28;20437;-61
2023/12/03 12:01:24;;;;;;;12.07;7.70;;;;;;;;;;4978485;28;20927;-60
2023/12/03 12:03:53;;;;;;;14.30;8.40;;;;;;;;;;4978683;28;20805;-61
2023/12/03 12:06:25;;;;;;;16.07;7.30;;;;;;;;;;4976418;28;20445;-60
2023/12/03 12:08:56;;;;;;;13.17;7.73;;;;;;;;;;4978818;28;20497;-60
2023/12/03 12:11:24;;;;;;;12.17;7.57;;;;;;;;;;4978127;28;20461;-60
2023/12/03 12:13:53;;;;;;;11.43;7.20;;;;;;;;;;4978684;28;20437;-60
2023/12/03 12:16:29;;;;;;;15.87;8.37;;;;;;;;;;4972779;28;20213;-60
2023/12/03 12:18:57;;;;;;;14.57;8.63;;;;;;;;;;4974031;28;20932;-60
2023/12/03 12:21:27;;;;;;;12.27;8.40;;;;;;;;;;4978367;28;20222;-60
2023/12/03 12:23:56;;;;;;;13.43;8.57;;;;;;;;;;4978477;28;20480;-60
2023/12/03 12:26:24;;;;;;;16.13;8.83;;;;;;;;;;4970272;28;20249;-60
2023/12/03 12:28:53;;;;;;;14.73;8.33;;;;;;;;;;4977224;28;20567;-60
2023/12/03 12:31:26;;;;;;;21.03;10.60;;;;;;;;;;4978370;28;20533;-61
2023/12/03 12:33:57;;;;;;;17.87;9.60;;;;;;;;;;4978876;28;20488;-60
2023/12/03 12:36:25;;;;;;;16.80;9.53;;;;;;;;;;4978268;28;20505;-60
2023/12/03 12:38:54;;;;;;;14.47;8.23;;;;;;;;;;4978266;28;20464;-61
2023/12/03 12:41:22;;;;;;;17.93;10.17;;;;;;;;;;4974364;28;20592;-60
2023/12/03 12:43:55;;;;;;;16.53;9.37;;;;;;;;;;4978621;28;20437;-60
2023/12/03 12:46:23;;;;;;;14.80;9.27;;;;;;;;;;4982378;28;20449;-60
2023/12/03 12:49:03;;;;;;;17.53;10.20;;;;;;;;;;4982301;28;20484;-59
2023/12/03 12:51:33;;;;;;;14.63;8.57;;;;;;;;;;4981760;28;20475;-59
2023/12/03 12:54:01;;;;;;;18.53;9.57;;;;;;;;;;4981773;28;20495;-59
2023/12/03 12:56:30;;;;;;;15.97;9.30;;;;;;;;;;4981788;28;20452;-60
2023/12/03 12:58:59;;;;;;;13.00;8.53;;;;;;;;;;4982477;28;20450;-59
2023/12/03 13:01:28;;;;;;;13.33;7.83;;;;;;;;;;4981887;28;20457;-59
2023/12/03 13:03:59;;;;;;;11.83;7.07;;;;;;;;;;4981476;28;20440;-59
2023/12/03 13:06:28;;;;;;;14.20;7.00;;;;;;;;;;4981850;28;20511;-60
2023/12/03 13:08:59;;;;;;;8.17;5.60;;;;;;;;;;4977506;28;21019;-60
2023/12/03 13:11:27;;;;;;;8.73;6.10;;;;;;;;;;4981480;28;20552;-60
2023/12/03 13:13:56;;;;;;;11.23;6.03;;;;;;;;;;4981818;28;20453;-60
2023/12/03 13:16:24;;;;;;;9.57;6.33;;;;;;;;;;4982056;28;20509;-60
2023/12/03 13:18:53;;;;;;;16.50;9.43;;;;;;;;;;4979123;28;20457;-60
2023/12/03 13:21:21;;;;;;;9.00;5.60;;;;;;;;;;4981016;28;20472;-60
2023/12/03 13:23:50;;;;;;;6.43;4.27;;;;;;;;;;4981163;28;20445;-60
2023/12/03 13:26:20;;;;;;;7.37;4.50;;;;;;;;;;4981242;28;20535;-60
2023/12/03 13:28:48;;;;;;;7.10;4.43;;;;;;;;;;4980787;28;20480;-60
2023/12/03 13:31:15;;;;;;;6.80;3.80;;;;;;;;;;4981676;28;20551;-59
2023/12/03 13:33:44;;;;;;;5.63;4.13;;;;;;;;;;4981834;28;20453;-60
2023/12/03 13:36:13;;;;;;;8.93;4.57;;;;;;;;;;4981376;28;20464;-60
2023/12/03 13:38:41;;;;;;;7.00;4.43;;;;;;;;;;4977751;28;20464;-60
2023/12/03 13:41:10;;;;;;;8.37;4.90;;;;;;;;;;4983821;28;20503;-60
2023/12/03 13:43:40;;;;;;;5.57;4.57;;;;;;;;;;4981056;28;20445;-60
2023/12/03 13:46:10;;;;;;;8.33;4.83;;;;;;;;;;4979060;28;20533;-60
2023/12/03 13:48:38;;;;;;;7.57;4.90;;;;;;;;;;4980711;28;20913;-60
2023/12/03 13:51:07;;;;;;;8.57;5.40;;;;;;;;;;4980835;28;20493;-60
2023/12/03 13:53:36;;;;;;;5.73;4.33;;;;;;;;;;4974956;28;20446;-59
2023/12/03 13:56:09;;;;;;;6.77;4.63;;;;;;;;;;4978570;28;20459;-60
2023/12/03 13:58:39;;;;;;;7.30;4.83;;;;;;;;;;4983097;28;20456;-60
2023/12/03 14:01:07;;;;;;;8.50;5.53;;;;;;;;;;4978568;28;20505;-60
2023/12/03 14:03:35;;;;;;;6.97;4.73;;;;;;;;;;4980914;28;20816;-59
2023/12/03 14:06:07;;;;;;;6.80;4.43;;;;;;;;;;4980907;28;20448;-60
2023/12/03 14:08:34;;;;;;;6.47;4.67;;;;;;;;;;4980561;28;21756;-60
2023/12/03 14:11:02;;;;;;;7.33;5.07;;;;;;;;;;4980421;28;20453;-59
2023/12/03 14:13:31;;;;;;;8.67;6.23;;;;;;;;;;4980576;28;20517;-60
2023/12/03 14:16:00;;;;;;;7.80;5.30;;;;;;;;;;4980539;28;20881;-59
2023/12/03 14:18:32;;;;;;;8.17;4.87;;;;;;;;;;4978299;28;20461;-60
2023/12/03 14:21:01;;;;;;;7.80;4.80;;;;;;;;;;4979413;28;20473;-60
2023/12/03 14:23:29;;;;;;;7.53;5.43;;;;;;;;;;4980108;28;20473;-59
2023/12/03 14:25:57;;;;;;;7.27;5.50;;;;;;;;;;4979860;28;20504;-59
2023/12/03 14:28:25;;;;;;;7.90;5.77;;;;;;;;;;4980173;28;21047;-59
2023/12/03 14:30:53;;;;;;;9.03;5.00;;;;;;;;;;4979911;28;20513;-59
2023/12/03 14:33:23;;;;;;;8.03;5.60;;;;;;;;;;4980510;28;20449;-59
2023/12/03 14:35:51;;;;;;;8.13;4.83;;;;;;;;;;4975546;28;20534;-60
2023/12/03 14:38:19;;;;;;;7.73;4.97;;;;;;;;;;4973769;28;20520;-60
2023/12/03 14:40:48;;;;;;;6.70;4.67;;;;;;;;;;4980295;28;20544;-59
2023/12/03 14:43:16;;;;;;;6.80;4.83;;;;;;;;;;4979877;28;21000;-60
2023/12/03 14:45:44;;;;;;;9.93;6.03;;;;;;;;;;4980271;28;20449;-59
2023/12/03 14:48:12;;;;;;;8.40;5.37;;;;;;;;;;4979881;28;20523;-59
2023/12/03 14:50:42;;;;;;;7.40;5.10;;;;;;;;;;4980291;28;20472;-60
2023/12/03 14:53:11;;;;;;;5.77;4.20;;;;;;;;;;4979444;28;20528;-60
2023/12/03 14:55:50;;;;;;;7.27;5.57;;;;;;;;;;4979518;28;20445;-59
2023/12/03 14:58:30;;;;;;;7.03;4.87;;;;;;;;;;4972832;28;20460;-59
2023/12/03 15:01:26;;;;;;;9.23;5.90;;;;;;;;;;4979718;28;20964;-59
2023/12/03 15:03:59;;;;;;;5.40;4.77;;;;;;;;;;4979847;28;20452;-59